Time;durP1;ratioP1;P1;durP2;ratioP2;P2;SDS_P1;SDS_P2;PMS_P1;PMS_P2;Temp;Humidity;BMP_temperature;BMP_pressure;BME280_temperature;BME280_humidity;BME280_pressure;Samples;Min_cycle;Max_cycle;Signal;HPM_P1;HPM_P2
2023/03/09 00:01:32;;;;;;;1.10;1.00;;;;;;;;;;5039362;28;20175;-48
2023/03/09 00:03:59;;;;;;;2.75;1.20;;;;;;;;;;5045642;28;20179;-48
2023/03/09 00:06:25;;;;;;;1.85;1.45;;;;;;;;;;5054748;28;20202;-48
2023/03/09 00:08:51;;;;;;;2.17;1.10;;;;;;;;;;5040012;28;20217;-48
2023/03/09 00:11:18;;;;;;;1.10;1.00;;;;;;;;;;5068351;28;20183;-48
2023/03/09 00:13:45;;;;;;;1.25;1.15;;;;;;;;;;5057904;28;20550;-48
2023/03/09 00:16:12;;;;;;;1.13;1.02;;;;;;;;;;5042655;28;20281;-48
2023/03/09 00:18:39;;;;;;;1.40;1.30;;;;;;;;;;5057275;28;20210;-48
2023/03/09 00:21:05;;;;;;;1.25;1.15;;;;;;;;;;5048527;28;20205;-48
2023/03/09 00:23:31;;;;;;;1.33;1.23;;;;;;;;;;5050978;28;20183;-48
2023/03/09 00:26:02;;;;;;;1.40;1.10;;;;;;;;;;5040460;28;20189;-48
2023/03/09 00:28:27;;;;;;;2.05;1.27;;;;;;;;;;5049951;28;20274;-48
2023/03/09 00:30:53;;;;;;;1.02;1.00;;;;;;;;;;5055026;28;20229;-48
2023/03/09 00:33:19;;;;;;;1.08;1.08;;;;;;;;;;5046221;28;20184;-48
2023/03/09 00:35:45;;;;;;;1.13;1.08;;;;;;;;;;5047642;28;20178;-47
2023/03/09 00:38:11;;;;;;;1.20;1.00;;;;;;;;;;5049182;28;20602;-48
2023/03/09 00:40:37;;;;;;;0.93;0.90;;;;;;;;;;5048912;28;20188;-48
2023/03/09 00:43:03;;;;;;;1.13;1.05;;;;;;;;;;5036978;28;20443;-48
2023/03/09 00:45:29;;;;;;;1.10;1.00;;;;;;;;;;5042691;28;20603;-48
2023/03/09 00:47:55;;;;;;;1.05;0.98;;;;;;;;;;5044495;28;20218;-48
2023/03/09 00:50:21;;;;;;;1.20;1.10;;;;;;;;;;5044272;28;20586;-48
2023/03/09 00:52:46;;;;;;;2.13;1.00;;;;;;;;;;5041093;28;20262;-48
2023/03/09 00:55:13;;;;;;;1.20;1.10;;;;;;;;;;5041006;28;20215;-47
2023/03/09 00:57:38;;;;;;;1.48;1.20;;;;;;;;;;5047028;28;20193;-47
2023/03/09 01:00:06;;;;;;;1.33;1.17;;;;;;;;;;5066098;28;20179;-48
2023/03/09 01:02:32;;;;;;;1.00;0.90;;;;;;;;;;5044582;28;20254;-48
2023/03/09 01:04:58;;;;;;;0.80;0.80;;;;;;;;;;5045702;28;20202;-48
2023/03/09 01:07:24;;;;;;;1.15;1.00;;;;;;;;;;5040219;28;20216;-48
2023/03/09 01:09:50;;;;;;;1.45;1.17;;;;;;;;;;5037195;28;20191;-48
2023/03/09 01:12:16;;;;;;;1.23;1.13;;;;;;;;;;5045249;28;20217;-47
2023/03/09 01:14:42;;;;;;;1.10;1.00;;;;;;;;;;5038748;28;20569;-47
2023/03/09 01:17:08;;;;;;;1.23;1.00;;;;;;;;;;5035989;28;20266;-47
2023/03/09 01:19:34;;;;;;;1.35;1.00;;;;;;;;;;5036638;28;20275;-47
2023/03/09 01:22:00;;;;;;;0.90;0.90;;;;;;;;;;5041134;28;20543;-47
2023/03/09 01:24:26;;;;;;;0.70;0.70;;;;;;;;;;5051379;28;20179;-48
2023/03/09 01:26:52;;;;;;;1.33;1.10;;;;;;;;;;5048883;28;20203;-48
2023/03/09 01:29:18;;;;;;;1.00;0.90;;;;;;;;;;5044488;28;20248;-48
2023/03/09 01:31:44;;;;;;;1.08;1.02;;;;;;;;;;5050433;28;20213;-48
2023/03/09 01:34:12;;;;;;;1.17;1.08;;;;;;;;;;5051066;28;20175;-48
2023/03/09 01:36:39;;;;;;;0.95;0.90;;;;;;;;;;5037439;28;20450;-48
2023/03/09 01:39:05;;;;;;;1.05;1.00;;;;;;;;;;5044125;28;20199;-48
2023/03/09 01:41:31;;;;;;;0.80;0.80;;;;;;;;;;5048059;28;20187;-48
2023/03/09 01:43:57;;;;;;;0.90;0.90;;;;;;;;;;5056033;28;20206;-48
2023/03/09 01:46:26;;;;;;;0.90;0.90;;;;;;;;;;5060025;28;20337;-48
2023/03/09 01:48:54;;;;;;;0.93;0.90;;;;;;;;;;5064872;28;20565;-48
2023/03/09 01:51:21;;;;;;;0.88;0.88;;;;;;;;;;5050688;28;20262;-48
2023/03/09 01:53:48;;;;;;;1.58;0.82;;;;;;;;;;5051101;28;20530;-48
2023/03/09 01:56:15;;;;;;;0.80;0.80;;;;;;;;;;5056144;28;20665;-48
2023/03/09 01:58:41;;;;;;;0.80;0.80;;;;;;;;;;5053860;28;20186;-48
2023/03/09 02:01:07;;;;;;;0.93;0.90;;;;;;;;;;5051745;28;20187;-48
2023/03/09 02:03:35;;;;;;;0.80;0.80;;;;;;;;;;5048665;28;20466;-48
2023/03/09 02:06:01;;;;;;;1.00;1.00;;;;;;;;;;5046131;28;20187;-48
2023/03/09 02:08:28;;;;;;;0.70;0.70;;;;;;;;;;5047916;28;20222;-48
2023/03/09 02:11:07;;;;;;;0.77;0.77;;;;;;;;;;5047120;28;20186;-48
2023/03/09 02:13:36;;;;;;;0.70;0.70;;;;;;;;;;5074321;28;20189;-48
2023/03/09 02:16:02;;;;;;;0.85;0.65;;;;;;;;;;5047554;28;20186;-48
2023/03/09 02:18:28;;;;;;;0.77;0.70;;;;;;;;;;5051600;28;20184;-48
2023/03/09 02:20:54;;;;;;;0.80;0.80;;;;;;;;;;5043275;28;20483;-48
2023/03/09 02:23:29;;;;;;;0.60;0.60;;;;;;;;;;5052020;28;20197;-48
2023/03/09 02:26:00;;;;;;;0.70;0.65;;;;;;;;;;5041514;28;20183;-48
2023/03/09 02:28:26;;;;;;;0.82;0.80;;;;;;;;;;5057820;28;20286;-48
2023/03/09 02:30:52;;;;;;;0.93;0.77;;;;;;;;;;5058467;28;20274;-48
2023/03/09 02:33:25;;;;;;;1.25;0.70;;;;;;;;;;5051379;28;20191;-48
2023/03/09 02:35:52;;;;;;;0.95;0.75;;;;;;;;;;5056031;28;20198;-48
2023/03/09 02:38:18;;;;;;;0.85;0.80;;;;;;;;;;5046542;28;20241;-48
2023/03/09 02:40:44;;;;;;;0.98;0.90;;;;;;;;;;5043404;28;20530;-47
2023/03/09 02:43:10;;;;;;;0.70;0.70;;;;;;;;;;5042007;28;20471;-47
2023/03/09 02:45:36;;;;;;;0.80;0.80;;;;;;;;;;5053181;28;20198;-48
2023/03/09 02:48:02;;;;;;;0.57;0.57;;;;;;;;;;5058463;28;20206;-48
2023/03/09 02:50:28;;;;;;;0.70;0.70;;;;;;;;;;5057758;28;20193;-48
2023/03/09 02:52:53;;;;;;;0.70;0.70;;;;;;;;;;5047083;28;20179;-48
2023/03/09 02:55:19;;;;;;;0.98;0.90;;;;;;;;;;5058081;28;20186;-48
2023/03/09 02:57:46;;;;;;;1.13;0.93;;;;;;;;;;5043367;28;20645;-48
2023/03/09 03:00:13;;;;;;;0.90;0.90;;;;;;;;;;5043766;28;20175;-48
2023/03/09 03:02:39;;;;;;;0.70;0.70;;;;;;;;;;5046042;28;20464;-48
2023/03/09 03:05:06;;;;;;;0.55;0.55;;;;;;;;;;5062373;28;20194;-48
2023/03/09 03:07:32;;;;;;;0.93;0.82;;;;;;;;;;5050574;28;20257;-48
2023/03/09 03:09:57;;;;;;;0.70;0.70;;;;;;;;;;5046741;28;20187;-48
2023/03/09 03:12:23;;;;;;;0.93;0.90;;;;;;;;;;5044455;28;20183;-48
2023/03/09 03:14:49;;;;;;;0.77;0.65;;;;;;;;;;5046974;28;20581;-49
2023/03/09 03:17:15;;;;;;;0.68;0.68;;;;;;;;;;5043919;28;20192;-49
2023/03/09 03:19:41;;;;;;;0.70;0.70;;;;;;;;;;5054941;28;20190;-49
2023/03/09 03:22:07;;;;;;;1.13;0.60;;;;;;;;;;5048688;28;20432;-48
2023/03/09 03:24:37;;;;;;;0.50;0.50;;;;;;;;;;5040414;28;20196;-48
2023/03/09 03:27:03;;;;;;;0.70;0.70;;;;;;;;;;5047093;28;20649;-48
2023/03/09 03:29:29;;;;;;;0.82;0.77;;;;;;;;;;5050470;28;20220;-48
2023/03/09 03:31:55;;;;;;;1.65;0.77;;;;;;;;;;5064021;28;20194;-48
2023/03/09 03:34:21;;;;;;;0.98;0.60;;;;;;;;;;5042805;28;20453;-48
2023/03/09 03:36:46;;;;;;;0.60;0.60;;;;;;;;;;5054036;28;20180;-48
2023/03/09 03:39:12;;;;;;;0.65;0.60;;;;;;;;;;5053301;28;20200;-48
2023/03/09 03:41:38;;;;;;;0.80;0.80;;;;;;;;;;5037212;28;20186;-48
2023/03/09 03:44:04;;;;;;;0.60;0.60;;;;;;;;;;5059018;28;20569;-48
2023/03/09 03:46:30;;;;;;;0.80;0.80;;;;;;;;;;5053637;28;20224;-49
2023/03/09 03:48:56;;;;;;;0.60;0.60;;;;;;;;;;5045199;28;20180;-49
2023/03/09 03:51:22;;;;;;;0.73;0.55;;;;;;;;;;5041288;28;20274;-49
2023/03/09 03:53:48;;;;;;;0.60;0.60;;;;;;;;;;5037279;28;20504;-49
2023/03/09 03:56:14;;;;;;;0.60;0.60;;;;;;;;;;5057159;28;20178;-49
2023/03/09 03:58:40;;;;;;;0.52;0.52;;;;;;;;;;5054107;28;20182;-49
2023/03/09 04:01:06;;;;;;;0.50;0.50;;;;;;;;;;5041299;28;20184;-49
2023/03/09 04:03:33;;;;;;;0.70;0.70;;;;;;;;;;5044015;28;20501;-49
2023/03/09 04:05:59;;;;;;;0.57;0.57;;;;;;;;;;5040989;28;20176;-48
2023/03/09 04:08:25;;;;;;;0.40;0.40;;;;;;;;;;5044480;28;20605;-48
2023/03/09 04:10:50;;;;;;;1.15;0.70;;;;;;;;;;5052515;28;20316;-48
2023/03/09 04:13:16;;;;;;;0.63;0.47;;;;;;;;;;5060856;28;20183;-49
2023/03/09 04:15:43;;;;;;;0.60;0.60;;;;;;;;;;5061816;28;20179;-49
2023/03/09 04:18:09;;;;;;;0.50;0.50;;;;;;;;;;5057144;28;20176;-49
2023/03/09 04:20:36;;;;;;;0.60;0.60;;;;;;;;;;5054389;28;20232;-48
2023/03/09 04:23:02;;;;;;;0.60;0.60;;;;;;;;;;5053874;28;20198;-48
2023/03/09 04:25:27;;;;;;;0.50;0.50;;;;;;;;;;5051628;28;20187;-48
2023/03/09 04:27:54;;;;;;;0.70;0.70;;;;;;;;;;5050221;28;20203;-48
2023/03/09 04:30:21;;;;;;;1.40;0.52;;;;;;;;;;5043022;28;20298;-48
2023/03/09 04:32:47;;;;;;;0.60;0.50;;;;;;;;;;5047586;28;20204;-48
2023/03/09 04:35:14;;;;;;;0.50;0.50;;;;;;;;;;5048746;28;20178;-48
2023/03/09 04:37:40;;;;;;;0.75;0.75;;;;;;;;;;5044674;28;20191;-49
2023/03/09 04:40:06;;;;;;;0.50;0.50;;;;;;;;;;5066400;28;20484;-49
2023/03/09 04:42:32;;;;;;;2.00;0.65;;;;;;;;;;5054640;28;20182;-49
2023/03/09 04:44:58;;;;;;;3.30;0.80;;;;;;;;;;5048825;28;20605;-48
2023/03/09 04:47:24;;;;;;;1.10;0.68;;;;;;;;;;5042806;28;20278;-49
2023/03/09 04:49:50;;;;;;;2.75;0.90;;;;;;;;;;5066787;28;20489;-49
2023/03/09 04:52:16;;;;;;;2.22;0.60;;;;;;;;;;5052656;28;20179;-48
2023/03/09 04:54:42;;;;;;;1.45;0.90;;;;;;;;;;5053825;28;20183;-48
2023/03/09 04:57:08;;;;;;;1.95;0.98;;;;;;;;;;5047355;28;20759;-48
2023/03/09 04:59:34;;;;;;;0.80;0.68;;;;;;;;;;5042393;28;20253;-49
2023/03/09 05:01:59;;;;;;;2.78;0.80;;;;;;;;;;5058792;28;20186;-49
2023/03/09 05:04:26;;;;;;;4.60;1.13;;;;;;;;;;5060171;28;20197;-48
2023/03/09 05:06:51;;;;;;;2.78;1.05;;;;;;;;;;5049799;28;20207;-49
2023/03/09 05:09:17;;;;;;;2.17;1.10;;;;;;;;;;5068207;28;20679;-48
2023/03/09 05:11:43;;;;;;;2.88;1.27;;;;;;;;;;5053539;28;20184;-48
2023/03/09 05:14:09;;;;;;;3.42;0.80;;;;;;;;;;5064549;28;20193;-49
2023/03/09 05:16:35;;;;;;;2.08;1.20;;;;;;;;;;5047826;28;20877;-49
2023/03/09 05:19:01;;;;;;;1.95;1.10;;;;;;;;;;5048424;28;20182;-49
2023/03/09 05:21:27;;;;;;;4.18;1.17;;;;;;;;;;5056578;28;20190;-49
2023/03/09 05:23:53;;;;;;;3.22;1.10;;;;;;;;;;5049913;28;20179;-49
2023/03/09 05:26:19;;;;;;;6.47;1.38;;;;;;;;;;5049593;28;20462;-49
2023/03/09 05:28:44;;;;;;;3.00;1.15;;;;;;;;;;5047822;28;20225;-49
2023/03/09 05:31:11;;;;;;;2.97;1.13;;;;;;;;;;5050344;28;20179;-49
2023/03/09 05:33:37;;;;;;;4.95;1.13;;;;;;;;;;5046542;28;20581;-49
2023/03/09 05:36:04;;;;;;;1.88;1.10;;;;;;;;;;5054974;28;20171;-49
2023/03/09 05:38:29;;;;;;;3.08;1.23;;;;;;;;;;5046578;28;20187;-49
2023/03/09 05:40:55;;;;;;;3.78;1.50;;;;;;;;;;5056405;28;20175;-49
2023/03/09 05:43:21;;;;;;;1.20;0.82;;;;;;;;;;5061459;28;20179;-49
2023/03/09 05:45:56;;;;;;;3.03;1.02;;;;;;;;;;5048262;28;20298;-49
2023/03/09 05:48:22;;;;;;;2.00;1.15;;;;;;;;;;5056662;28;20292;-49
2023/03/09 05:50:48;;;;;;;2.63;1.38;;;;;;;;;;5043321;28;20539;-49
2023/03/09 05:53:14;;;;;;;2.15;1.20;;;;;;;;;;5049592;28;20213;-49
2023/03/09 05:55:40;;;;;;;4.15;1.25;;;;;;;;;;5071781;28;20228;-49
2023/03/09 05:58:06;;;;;;;3.75;1.00;;;;;;;;;;5054017;28;20262;-49
2023/03/09 06:00:32;;;;;;;2.13;1.08;;;;;;;;;;5048182;28;20211;-49
2023/03/09 06:02:57;;;;;;;2.40;1.02;;;;;;;;;;5046511;28;20174;-49
2023/03/09 06:05:23;;;;;;;2.95;1.20;;;;;;;;;;5059914;28;20207;-49
2023/03/09 06:07:51;;;;;;;2.53;1.25;;;;;;;;;;5061139;28;20267;-49
2023/03/09 06:10:17;;;;;;;2.35;0.90;;;;;;;;;;5070438;28;20274;-49
2023/03/09 06:12:43;;;;;;;1.67;1.02;;;;;;;;;;5065133;28;20521;-48
2023/03/09 06:15:09;;;;;;;2.35;1.17;;;;;;;;;;5054699;28;20209;-49
2023/03/09 06:17:35;;;;;;;2.13;0.93;;;;;;;;;;5054405;28;20462;-48
2023/03/09 06:20:02;;;;;;;1.55;1.00;;;;;;;;;;5057858;28;20254;-48
2023/03/09 06:22:28;;;;;;;2.22;1.23;;;;;;;;;;5060786;28;20197;-48
2023/03/09 06:24:54;;;;;;;1.65;1.05;;;;;;;;;;5066690;28;20179;-48
2023/03/09 06:27:19;;;;;;;1.38;1.10;;;;;;;;;;5052650;28;20249;-49
2023/03/09 06:29:45;;;;;;;2.17;0.82;;;;;;;;;;5055204;28;20201;-48
2023/03/09 06:32:11;;;;;;;1.65;0.93;;;;;;;;;;5040135;28;20187;-48
2023/03/09 06:34:37;;;;;;;1.15;0.80;;;;;;;;;;5045682;28;20285;-48
2023/03/09 06:37:03;;;;;;;2.38;0.93;;;;;;;;;;5047240;28;20191;-48
2023/03/09 06:39:29;;;;;;;1.63;0.77;;;;;;;;;;5060629;28;20223;-48
2023/03/09 06:41:55;;;;;;;1.33;0.88;;;;;;;;;;5061144;28;20261;-48
2023/03/09 06:44:21;;;;;;;1.42;1.00;;;;;;;;;;5053054;28;20258;-48
2023/03/09 06:46:47;;;;;;;2.05;0.75;;;;;;;;;;5057274;28;20534;-48
2023/03/09 06:49:13;;;;;;;1.95;0.80;;;;;;;;;;5055128;28;20478;-48
2023/03/09 06:51:39;;;;;;;1.90;0.88;;;;;;;;;;5057731;28;20186;-48
2023/03/09 06:54:05;;;;;;;1.88;0.85;;;;;;;;;;5059020;28;20171;-48
2023/03/09 06:56:31;;;;;;;1.33;0.80;;;;;;;;;;5067428;28;20181;-48
2023/03/09 06:58:57;;;;;;;1.45;0.70;;;;;;;;;;5067165;28;20191;-48
2023/03/09 07:01:23;;;;;;;3.38;1.00;;;;;;;;;;5058810;28;20213;-48
2023/03/09 07:03:49;;;;;;;1.25;0.90;;;;;;;;;;5063257;28;20313;-48
2023/03/09 07:06:15;;;;;;;3.35;0.82;;;;;;;;;;5048928;28;20198;-48
2023/03/09 07:08:41;;;;;;;4.93;1.00;;;;;;;;;;5060778;28;20214;-48
2023/03/09 07:11:06;;;;;;;1.42;0.98;;;;;;;;;;5051492;28;20558;-48
2023/03/09 07:13:32;;;;;;;4.70;0.90;;;;;;;;;;5066601;28;20180;-48
2023/03/09 07:16:01;;;;;;;1.42;0.80;;;;;;;;;;5066837;28;20177;-48
2023/03/09 07:18:27;;;;;;;2.53;1.00;;;;;;;;;;5054868;28;20171;-48
2023/03/09 07:20:53;;;;;;;1.67;0.95;;;;;;;;;;5058839;28;20226;-48
2023/03/09 07:23:19;;;;;;;2.90;0.95;;;;;;;;;;5061421;28;20234;-47
2023/03/09 07:25:45;;;;;;;2.65;1.10;;;;;;;;;;5063037;28;20184;-48
2023/03/09 07:28:11;;;;;;;2.10;1.00;;;;;;;;;;5061814;28;20198;-48
2023/03/09 07:30:37;;;;;;;5.80;1.02;;;;;;;;;;5046723;28;20211;-48
2023/03/09 07:33:04;;;;;;;1.95;0.80;;;;;;;;;;5063247;28;20200;-48
2023/03/09 07:35:29;;;;;;;7.05;1.25;;;;;;;;;;5062334;28;20198;-48
2023/03/09 07:37:55;;;;;;;1.63;0.70;;;;;;;;;;5057285;28;20210;-48
2023/03/09 07:40:21;;;;;;;2.92;1.13;;;;;;;;;;5063682;28;20862;-48
2023/03/09 07:42:53;;;;;;;0.70;0.60;;;;;;;;;;5071133;28;20375;-48
2023/03/09 07:45:20;;;;;;;2.85;0.75;;;;;;;;;;5048645;28;20175;-49
2023/03/09 07:47:46;;;;;;;2.42;0.63;;;;;;;;;;5066442;28;20473;-48
2023/03/09 07:50:12;;;;;;;5.90;0.77;;;;;;;;;;5042889;28;20270;-48
2023/03/09 07:52:38;;;;;;;2.92;1.05;;;;;;;;;;5069660;28;20415;-48
2023/03/09 07:55:07;;;;;;;2.15;0.80;;;;;;;;;;5068806;28;20179;-48
2023/03/09 07:57:34;;;;;;;1.15;0.70;;;;;;;;;;5065931;28;20174;-49
2023/03/09 08:00:00;;;;;;;1.23;0.88;;;;;;;;;;5044799;28;20313;-48
2023/03/09 08:02:26;;;;;;;3.22;0.90;;;;;;;;;;5059638;28;20207;-48
2023/03/09 08:04:52;;;;;;;1.23;0.80;;;;;;;;;;5058356;28;20179;-48
2023/03/09 08:07:18;;;;;;;4.25;0.90;;;;;;;;;;5057060;28;20210;-48
2023/03/09 08:09:44;;;;;;;1.23;0.68;;;;;;;;;;5064976;28;20189;-48
2023/03/09 08:12:10;;;;;;;2.83;0.80;;;;;;;;;;5066053;28;20255;-48
2023/03/09 08:14:36;;;;;;;1.45;0.60;;;;;;;;;;5052198;28;20182;-48
2023/03/09 08:17:03;;;;;;;0.80;0.80;;;;;;;;;;5045067;28;20521;-48
2023/03/09 08:19:29;;;;;;;1.13;0.70;;;;;;;;;;5047539;28;20239;-48
2023/03/09 08:21:56;;;;;;;1.25;0.70;;;;;;;;;;5040253;28;20249;-48
2023/03/09 08:24:22;;;;;;;0.90;0.70;;;;;;;;;;5042983;28;20171;-48
2023/03/09 08:26:48;;;;;;;0.85;0.70;;;;;;;;;;5055622;28;20221;-49
2023/03/09 08:29:14;;;;;;;1.95;1.13;;;;;;;;;;5050329;28;20239;-48
2023/03/09 08:31:40;;;;;;;1.85;0.80;;;;;;;;;;5045959;28;20230;-48
2023/03/09 08:34:06;;;;;;;1.30;0.90;;;;;;;;;;5038857;28;20171;-48
2023/03/09 08:36:32;;;;;;;1.90;0.85;;;;;;;;;;5046301;28;20189;-48
2023/03/09 08:38:58;;;;;;;1.80;0.82;;;;;;;;;;5046323;28;20192;-48
2023/03/09 08:41:24;;;;;;;3.88;1.00;;;;;;;;;;5049713;28;20179;-48
2023/03/09 08:43:51;;;;;;;3.40;1.25;;;;;;;;;;5044618;28;20270;-48
2023/03/09 08:46:17;;;;;;;2.25;0.68;;;;;;;;;;5044845;28;20260;-48
2023/03/09 08:48:43;;;;;;;1.77;0.85;;;;;;;;;;5043337;28;20314;-48
2023/03/09 08:51:10;;;;;;;2.08;1.00;;;;;;;;;;5049006;28;20198;-48
2023/03/09 08:53:37;;;;;;;3.33;1.25;;;;;;;;;;5051441;28;20577;-48
2023/03/09 08:56:07;;;;;;;2.72;0.80;;;;;;;;;;5037947;28;20179;-48
2023/03/09 08:58:34;;;;;;;1.75;1.17;;;;;;;;;;5056753;28;20187;-48
2023/03/09 09:01:00;;;;;;;2.80;1.25;;;;;;;;;;5047276;28;20179;-49
2023/03/09 09:03:28;;;;;;;3.92;1.00;;;;;;;;;;5054197;28;20175;-48
2023/03/09 09:05:54;;;;;;;2.03;0.95;;;;;;;;;;5049110;28;20278;-48
2023/03/09 09:08:20;;;;;;;2.15;0.77;;;;;;;;;;5048337;28;20310;-48
2023/03/09 09:10:46;;;;;;;2.90;1.05;;;;;;;;;;5034776;28;20682;-48
2023/03/09 09:13:13;;;;;;;2.47;1.00;;;;;;;;;;5060040;28;20223;-48
2023/03/09 09:15:41;;;;;;;1.55;1.10;;;;;;;;;;5042062;28;20175;-48
2023/03/09 09:18:07;;;;;;;3.45;1.00;;;;;;;;;;5036812;28;20241;-48
2023/03/09 09:20:33;;;;;;;1.33;1.00;;;;;;;;;;5034492;28;20495;-48
2023/03/09 09:22:59;;;;;;;1.98;1.08;;;;;;;;;;5034641;28;20191;-48
2023/03/09 09:25:25;;;;;;;1.17;0.93;;;;;;;;;;5035143;28;20183;-46
2023/03/09 09:27:51;;;;;;;2.67;1.02;;;;;;;;;;5035213;28;20219;-51
2023/03/09 09:30:18;;;;;;;6.55;1.50;;;;;;;;;;5034381;28;20229;-48
2023/03/09 09:32:44;;;;;;;8.98;1.23;;;;;;;;;;5036256;28;20604;-50
2023/03/09 09:35:14;;;;;;;6.75;1.52;;;;;;;;;;5048637;28;20195;-58
2023/03/09 09:37:41;;;;;;;1.45;0.88;;;;;;;;;;5042677;28;20784;-51
2023/03/09 09:40:10;;;;;;;5.22;1.48;;;;;;;;;;5035556;28;20219;-52
2023/03/09 09:42:38;;;;;;;4.07;1.13;;;;;;;;;;5036351;28;20194;-51
2023/03/09 09:45:05;;;;;;;3.42;1.30;;;;;;;;;;5043827;28;20290;-52
2023/03/09 09:47:33;;;;;;;5.13;1.40;;;;;;;;;;5037482;28;20241;-52
2023/03/09 09:50:01;;;;;;;4.50;1.20;;;;;;;;;;5033332;28;20211;-48
2023/03/09 09:52:33;;;;;;;4.68;1.00;;;;;;;;;;5037085;28;20305;-50
2023/03/09 09:55:18;;;;;;;6.75;1.42;;;;;;;;;;5034064;28;20212;-50
2023/03/09 09:57:45;;;;;;;2.05;1.00;;;;;;;;;;5039890;28;20641;-49
2023/03/09 10:00:13;;;;;;;2.45;1.05;;;;;;;;;;5040014;28;20800;-49
2023/03/09 10:02:39;;;;;;;3.15;1.10;;;;;;;;;;5056145;28;20187;-49
2023/03/09 10:05:20;;;;;;;2.58;1.00;;;;;;;;;;5051662;28;21810;-52
2023/03/09 10:07:47;;;;;;;5.22;1.40;;;;;;;;;;5045054;28;20250;-47
2023/03/09 10:10:20;;;;;;;2.53;0.95;;;;;;;;;;5062059;28;20247;-50
2023/03/09 10:12:46;;;;;;;5.30;1.42;;;;;;;;;;5054335;28;20207;-52
2023/03/09 10:15:24;;;;;;;5.45;1.40;;;;;;;;;;5044259;28;20262;-50
2023/03/09 10:17:58;;;;;;;6.03;1.40;;;;;;;;;;5044119;28;20191;-58
2023/03/09 10:20:24;;;;;;;7.50;1.27;;;;;;;;;;5043801;28;20195;-48
2023/03/09 10:22:51;;;;;;;3.63;1.20;;;;;;;;;;5071605;28;20600;-47
2023/03/09 10:25:20;;;;;;;5.28;1.15;;;;;;;;;;5059192;28;20215;-50
2023/03/09 10:27:57;;;;;;;3.65;1.00;;;;;;;;;;5045563;28;20218;-47
2023/03/09 10:30:36;;;;;;;3.30;1.27;;;;;;;;;;5041043;28;20586;-49
2023/03/09 10:33:08;;;;;;;3.08;1.05;;;;;;;;;;5055701;28;20235;-46
2023/03/09 10:35:56;;;;;;;2.70;1.30;;;;;;;;;;5051743;28;20191;-44
2023/03/09 10:38:25;;;;;;;2.05;1.23;;;;;;;;;;5042746;28;20203;-48
2023/03/09 10:40:52;;;;;;;5.13;1.30;;;;;;;;;;5049900;28;20212;-45
2023/03/09 10:43:23;;;;;;;5.20;1.38;;;;;;;;;;5061586;28;20187;-49
2023/03/09 10:45:49;;;;;;;3.80;1.25;;;;;;;;;;5054462;28;20830;-49
2023/03/09 10:48:22;;;;;;;2.45;1.02;;;;;;;;;;5068743;28;20284;-46
2023/03/09 10:50:55;;;;;;;4.53;1.58;;;;;;;;;;5048897;28;20503;-51
2023/03/09 10:53:21;;;;;;;4.05;1.17;;;;;;;;;;5066003;28;20221;-46
2023/03/09 10:55:47;;;;;;;3.42;1.10;;;;;;;;;;5060525;28;20175;-48
2023/03/09 10:58:21;;;;;;;3.42;1.67;;;;;;;;;;5073178;28;20174;-49
2023/03/09 11:00:58;;;;;;;6.00;1.17;;;;;;;;;;5060517;28;20512;-48
2023/03/09 11:03:32;;;;;;;10.15;1.40;;;;;;;;;;5057628;28;20179;-49
2023/03/09 11:06:09;;;;;;;9.93;1.48;;;;;;;;;;5053948;28;20230;-48
2023/03/09 11:08:35;;;;;;;5.55;1.40;;;;;;;;;;5051239;28;20215;-64
2023/03/09 11:11:06;;;;;;;2.60;1.20;;;;;;;;;;5057660;28;20236;-64
2023/03/09 11:13:32;;;;;;;9.63;1.42;;;;;;;;;;5060725;28;20265;-65
2023/03/09 11:16:07;;;;;;;7.07;1.42;;;;;;;;;;5058516;28;20186;-65
2023/03/09 11:18:32;;;;;;;3.45;1.20;;;;;;;;;;5056459;28;20179;-66
2023/03/09 11:20:58;;;;;;;3.10;1.10;;;;;;;;;;5052803;28;20249;-66
2023/03/09 11:23:32;;;;;;;4.60;1.42;;;;;;;;;;5059499;28;20601;-48
2023/03/09 11:26:13;;;;;;;5.80;1.33;;;;;;;;;;5059492;28;20610;-45
2023/03/09 11:28:47;;;;;;;5.32;0.95;;;;;;;;;;5056426;28;20221;-48
2023/03/09 11:31:15;;;;;;;2.13;1.10;;;;;;;;;;5047334;28;20171;-50
2023/03/09 11:33:41;;;;;;;3.95;1.23;;;;;;;;;;5053817;28;20190;-49
2023/03/09 11:36:11;;;;;;;3.67;1.30;;;;;;;;;;5064897;28;20193;-50
2023/03/09 11:38:37;;;;;;;4.10;1.38;;;;;;;;;;5069196;28;20184;-52
2023/03/09 11:41:15;;;;;;;1.67;1.30;;;;;;;;;;5066193;28;20186;-50
2023/03/09 11:43:43;;;;;;;4.05;1.27;;;;;;;;;;5063514;28;20192;-48
2023/03/09 11:46:12;;;;;;;3.60;1.50;;;;;;;;;;5060689;28;20198;-49
2023/03/09 11:48:40;;;;;;;7.10;1.80;;;;;;;;;;5063031;28;20709;-49
2023/03/09 11:51:06;;;;;;;9.65;1.58;;;;;;;;;;5058045;28;20297;-49
2023/03/09 11:53:37;;;;;;;4.00;1.42;;;;;;;;;;5058079;28;20175;-49
2023/03/09 11:56:16;;;;;;;4.38;1.33;;;;;;;;;;5062163;28;20223;-49
2023/03/09 11:58:43;;;;;;;5.72;1.52;;;;;;;;;;5051405;28;20559;-49
2023/03/09 12:01:18;;;;;;;7.45;1.70;;;;;;;;;;5056133;28;20588;-49
2023/03/09 12:03:55;;;;;;;6.18;1.60;;;;;;;;;;5050252;28;20196;-48
2023/03/09 12:06:26;;;;;;;7.93;1.60;;;;;;;;;;5050300;28;20236;-49
2023/03/09 12:08:54;;;;;;;5.32;1.50;;;;;;;;;;5055399;28;20269;-48
2023/03/09 12:11:22;;;;;;;7.00;1.88;;;;;;;;;;5056708;28;20199;-48
2023/03/09 12:13:48;;;;;;;2.47;1.40;;;;;;;;;;5053626;28;20266;-48
2023/03/09 12:16:34;;;;;;;4.82;1.27;;;;;;;;;;5055676;28;20285;-48
2023/03/09 12:19:09;;;;;;;1.67;1.13;;;;;;;;;;5074650;28;20182;-48
2023/03/09 12:21:37;;;;;;;1.90;1.67;;;;;;;;;;5057813;28;20194;-49
2023/03/09 12:24:20;;;;;;;4.43;1.40;;;;;;;;;;5071871;28;20186;-49
2023/03/09 12:26:56;;;;;;;2.72;1.50;;;;;;;;;;5063845;28;20565;-49
2023/03/09 12:29:23;;;;;;;3.83;1.45;;;;;;;;;;5069795;28;20557;-49
2023/03/09 12:32:08;;;;;;;2.50;1.40;;;;;;;;;;5057045;28;20573;-49
2023/03/09 12:34:39;;;;;;;8.93;1.75;;;;;;;;;;5060327;28;20196;-49
2023/03/09 12:37:25;;;;;;;2.17;1.42;;;;;;;;;;5070375;28;20204;-49
2023/03/09 12:39:58;;;;;;;9.32;1.98;;;;;;;;;;5062474;28;20174;-53
2023/03/09 12:42:50;;;;;;;4.07;1.50;;;;;;;;;;5069569;28;20621;-45
2023/03/09 12:45:19;;;;;;;11.95;1.77;;;;;;;;;;5049795;28;20289;-46
2023/03/09 12:47:45;;;;;;;3.83;1.40;;;;;;;;;;5059856;28;20217;-46
2023/03/09 12:50:22;;;;;;;3.58;1.48;;;;;;;;;;5064627;28;20176;-46
2023/03/09 12:52:48;;;;;;;5.35;1.27;;;;;;;;;;5038935;28;20559;-45
2023/03/09 12:55:14;;;;;;;4.05;1.42;;;;;;;;;;5046862;28;20182;-55
2023/03/09 12:57:40;;;;;;;5.35;1.60;;;;;;;;;;5061038;28;20604;-46
2023/03/09 13:00:24;;;;;;;6.55;1.63;;;;;;;;;;5047109;28;20209;-45
2023/03/09 13:02:58;;;;;;;5.47;1.42;;;;;;;;;;5043007;28;20191;-50
2023/03/09 13:05:27;;;;;;;9.80;1.60;;;;;;;;;;5054918;28;20240;-46
2023/03/09 13:07:59;;;;;;;3.65;1.40;;;;;;;;;;5049525;28;20219;-49
2023/03/09 13:10:28;;;;;;;3.33;1.40;;;;;;;;;;5047052;28;20218;-49
2023/03/09 13:12:55;;;;;;;4.28;1.35;;;;;;;;;;5034295;28;20237;-47
2023/03/09 13:15:23;;;;;;;7.80;1.38;;;;;;;;;;5033747;28;20172;-47
2023/03/09 13:18:12;;;;;;;4.72;1.45;;;;;;;;;;5033959;28;20188;-45
2023/03/09 13:20:42;;;;;;;5.65;1.58;;;;;;;;;;5044544;28;20582;-48
2023/03/09 13:23:14;;;;;;;1.80;1.10;;;;;;;;;;5046024;28;20574;-49
2023/03/09 13:25:42;;;;;;;2.58;1.35;;;;;;;;;;5060810;28;20214;-51
2023/03/09 13:28:13;;;;;;;6.65;1.27;;;;;;;;;;5056002;28;20205;-49
2023/03/09 13:30:42;;;;;;;2.08;1.38;;;;;;;;;;5047274;28;20200;-47
2023/03/09 13:33:14;;;;;;;4.25;1.30;;;;;;;;;;5061647;28;20183;-49
2023/03/09 13:35:47;;;;;;;2.78;1.42;;;;;;;;;;5057184;28;20195;-51
2023/03/09 13:38:21;;;;;;;2.88;1.10;;;;;;;;;;5051384;28;21239;-51
2023/03/09 13:40:49;;;;;;;6.90;1.42;;;;;;;;;;5049620;28;20562;-51
2023/03/09 13:43:17;;;;;;;10.27;1.88;;;;;;;;;;5051025;28;20182;-49
2023/03/09 13:45:54;;;;;;;7.35;1.75;;;;;;;;;;5045707;28;20183;-52
2023/03/09 13:48:19;;;;;;;2.78;1.10;;;;;;;;;;5043613;28;20220;-50
2023/03/09 13:50:45;;;;;;;3.88;1.00;;;;;;;;;;5054103;28;20188;-58
2023/03/09 13:53:14;;;;;;;2.28;1.27;;;;;;;;;;5061401;28;20311;-54
2023/03/09 13:55:40;;;;;;;7.40;1.90;;;;;;;;;;5061945;28;20192;-51
2023/03/09 13:58:21;;;;;;;4.57;1.30;;;;;;;;;;5049469;28;20214;-54
2023/03/09 14:00:52;;;;;;;10.88;1.63;;;;;;;;;;5046544;28;20232;-51
2023/03/09 14:03:18;;;;;;;4.43;1.27;;;;;;;;;;5052069;28;20261;-53
2023/03/09 14:05:53;;;;;;;4.25;1.30;;;;;;;;;;5051787;28;20593;-51
2023/03/09 14:08:21;;;;;;;1.95;1.30;;;;;;;;;;5042135;28;20206;-51
2023/03/09 14:10:48;;;;;;;3.75;2.17;;;;;;;;;;5058756;28;20187;-53
2023/03/09 14:13:16;;;;;;;8.27;2.65;;;;;;;;;;5049007;28;20179;-50
2023/03/09 14:15:44;;;;;;;4.07;2.20;;;;;;;;;;5062213;28;20251;-46
2023/03/09 14:18:39;;;;;;;3.00;2.13;;;;;;;;;;5056278;28;20179;-51
2023/03/09 14:21:16;;;;;;;4.55;2.45;;;;;;;;;;5056008;28;20232;-47
2023/03/09 14:23:43;;;;;;;3.47;2.50;;;;;;;;;;5069078;28;20190;-48
2023/03/09 14:26:09;;;;;;;5.15;2.45;;;;;;;;;;5061545;28;20207;-40
2023/03/09 14:28:40;;;;;;;3.40;2.30;;;;;;;;;;5054332;28;20229;-49
2023/03/09 14:31:20;;;;;;;3.10;2.30;;;;;;;;;;5048002;28;20179;-49
2023/03/09 14:34:03;;;;;;;4.18;2.58;;;;;;;;;;5065116;28;20186;-49
2023/03/09 14:36:33;;;;;;;5.95;2.30;;;;;;;;;;5050132;28;20411;-49
2023/03/09 14:39:01;;;;;;;2.53;2.17;;;;;;;;;;5046919;28;20271;-45
2023/03/09 14:41:28;;;;;;;3.33;2.20;;;;;;;;;;5057300;28;20182;-44
2023/03/09 14:43:54;;;;;;;3.42;2.13;;;;;;;;;;5043038;28;20192;-50
2023/03/09 14:46:21;;;;;;;4.60;2.15;;;;;;;;;;5052296;28;20179;-48
2023/03/09 14:48:51;;;;;;;3.67;2.45;;;;;;;;;;5043771;28;20203;-50